sensor_id;sensor_type;location;lat;lon;timestamp;P1;durP1;ratioP1;P2;durP2;ratioP2
26082;SDS011;13848;49.018;12.078;2023-05-01T00:00:51;5.47;;;3.28;;
26082;SDS011;13848;49.018;12.078;2023-05-01T00:03:17;3.67;;;3.20;;
26082;SDS011;13848;49.018;12.078;2023-05-01T00:05:43;5.88;;;2.92;;
26082;SDS011;13848;49.018;12.078;2023-05-01T00:08:11;3.40;;;3.05;;
26082;SDS011;13848;49.018;12.078;2023-05-01T00:10:37;4.55;;;3.55;;
26082;SDS011;13848;49.018;12.078;2023-05-01T00:13:03;3.63;;;3.03;;
26082;SDS011;13848;49.018;12.078;2023-05-01T00:15:29;3.92;;;3.20;;
26082;SDS011;13848;49.018;12.078;2023-05-01T00:17:55;3.33;;;2.90;;
26082;SDS011;13848;49.018;12.078;2023-05-01T00:20:21;5.20;;;3.63;;
26082;SDS011;13848;49.018;12.078;2023-05-01T00:22:50;4.50;;;3.13;;
26082;SDS011;13848;49.018;12.078;2023-05-01T00:25:17;4.88;;;3.13;;
26082;SDS011;13848;49.018;12.078;2023-05-01T00:27:43;4.63;;;3.33;;
26082;SDS011;13848;49.018;12.078;2023-05-01T00:30:10;4.70;;;3.25;;
26082;SDS011;13848;49.018;12.078;2023-05-01T00:32:36;3.85;;;3.15;;
26082;SDS011;13848;49.018;12.078;2023-05-01T00:35:02;4.00;;;3.42;;
26082;SDS011;13848;49.018;12.078;2023-05-01T00:37:28;5.07;;;3.60;;
26082;SDS011;13848;49.018;12.078;2023-05-01T00:39:54;5.72;;;3.70;;
26082;SDS011;13848;49.018;12.078;2023-05-01T00:42:21;5.47;;;3.58;;
26082;SDS011;13848;49.018;12.078;2023-05-01T00:44:47;5.88;;;3.85;;
26082;SDS011;13848;49.018;12.078;2023-05-01T00:47:13;5.00;;;3.50;;
26082;SDS011;13848;49.018;12.078;2023-05-01T00:49:40;6.95;;;3.88;;
26082;SDS011;13848;49.018;12.078;2023-05-01T00:52:07;5.88;;;3.72;;
26082;SDS011;13848;49.018;12.078;2023-05-01T00:54:33;4.97;;;3.53;;
26082;SDS011;13848;49.018;12.078;2023-05-01T00:56:59;5.72;;;3.83;;
26082;SDS011;13848;49.018;12.078;2023-05-01T00:59:26;5.28;;;3.58;;
26082;SDS011;13848;49.018;12.078;2023-05-01T01:01:52;6.85;;;3.80;;
26082;SDS011;13848;49.018;12.078;2023-05-01T01:04:18;5.90;;;3.70;;
26082;SDS011;13848;49.018;12.078;2023-05-01T01:06:47;6.22;;;3.80;;
26082;SDS011;13848;49.018;12.078;2023-05-01T01:09:24;4.63;;;3.63;;
26082;SDS011;13848;49.018;12.078;2023-05-01T01:11:57;7.38;;;4.00;;
26082;SDS011;13848;49.018;12.078;2023-05-01T01:14:33;6.22;;;4.30;;
26082;SDS011;13848;49.018;12.078;2023-05-01T01:17:07;5.40;;;3.95;;
26082;SDS011;13848;49.018;12.078;2023-05-01T01:19:47;5.20;;;3.80;;
26082;SDS011;13848;49.018;12.078;2023-05-01T01:22:37;5.05;;;4.15;;
26082;SDS011;13848;49.018;12.078;2023-05-01T01:25:10;6.72;;;4.35;;
26082;SDS011;13848;49.018;12.078;2023-05-01T01:28:15;6.55;;;4.20;;
26082;SDS011;13848;49.018;12.078;2023-05-01T01:31:04;5.25;;;4.47;;
26082;SDS011;13848;49.018;12.078;2023-05-01T01:33:41;8.20;;;4.40;;
26082;SDS011;13848;49.018;12.078;2023-05-01T01:36:21;6.47;;;4.10;;
26082;SDS011;13848;49.018;12.078;2023-05-01T01:38:59;6.30;;;4.45;;
26082;SDS011;13848;49.018;12.078;2023-05-01T01:41:32;5.75;;;4.20;;
26082;SDS011;13848;49.018;12.078;2023-05-01T01:44:00;7.75;;;4.90;;
26082;SDS011;13848;49.018;12.078;2023-05-01T01:46:29;9.13;;;4.82;;
26082;SDS011;13848;49.018;12.078;2023-05-01T01:49:04;5.45;;;4.20;;
26082;SDS011;13848;49.018;12.078;2023-05-01T01:51:32;5.43;;;4.53;;
26082;SDS011;13848;49.018;12.078;2023-05-01T01:54:00;6.90;;;5.15;;
26082;SDS011;13848;49.018;12.078;2023-05-01T01:56:28;6.45;;;4.95;;
26082;SDS011;13848;49.018;12.078;2023-05-01T01:58:57;6.68;;;4.88;;
26082;SDS011;13848;49.018;12.078;2023-05-01T02:01:25;7.70;;;4.95;;
26082;SDS011;13848;49.018;12.078;2023-05-01T02:03:53;11.95;;;5.55;;
26082;SDS011;13848;49.018;12.078;2023-05-01T02:06:21;9.57;;;5.60;;
26082;SDS011;13848;49.018;12.078;2023-05-01T02:08:48;8.20;;;5.63;;
26082;SDS011;13848;49.018;12.078;2023-05-01T02:11:15;9.43;;;5.60;;
26082;SDS011;13848;49.018;12.078;2023-05-01T02:13:45;7.82;;;5.68;;
26082;SDS011;13848;49.018;12.078;2023-05-01T02:16:13;7.50;;;5.40;;
26082;SDS011;13848;49.018;12.078;2023-05-01T02:18:40;9.75;;;5.57;;
26082;SDS011;13848;49.018;12.078;2023-05-01T02:21:07;8.82;;;5.72;;
26082;SDS011;13848;49.018;12.078;2023-05-01T02:23:37;9.38;;;6.30;;
26082;SDS011;13848;49.018;12.078;2023-05-01T02:26:03;9.13;;;6.25;;
26082;SDS011;13848;49.018;12.078;2023-05-01T02:28:31;11.52;;;6.28;;
26082;SDS011;13848;49.018;12.078;2023-05-01T02:30:59;8.70;;;6.28;;
26082;SDS011;13848;49.018;12.078;2023-05-01T02:33:24;9.88;;;6.07;;
26082;SDS011;13848;49.018;12.078;2023-05-01T02:35:50;9.48;;;6.68;;
26082;SDS011;13848;49.018;12.078;2023-05-01T02:38:16;10.88;;;6.57;;
26082;SDS011;13848;49.018;12.078;2023-05-01T02:40:45;10.95;;;7.40;;
26082;SDS011;13848;49.018;12.078;2023-05-01T02:43:15;10.23;;;6.68;;
26082;SDS011;13848;49.018;12.078;2023-05-01T02:45:43;10.75;;;6.93;;
26082;SDS011;13848;49.018;12.078;2023-05-01T02:48:09;11.20;;;7.28;;
26082;SDS011;13848;49.018;12.078;2023-05-01T02:50:40;9.75;;;7.43;;
26082;SDS011;13848;49.018;12.078;2023-05-01T02:53:07;10.15;;;7.07;;
26082;SDS011;13848;49.018;12.078;2023-05-01T02:55:34;12.00;;;7.00;;
26082;SDS011;13848;49.018;12.078;2023-05-01T02:58:01;13.32;;;7.57;;
26082;SDS011;13848;49.018;12.078;2023-05-01T03:00:27;11.73;;;7.38;;
26082;SDS011;13848;49.018;12.078;2023-05-01T03:02:53;12.98;;;7.82;;
26082;SDS011;13848;49.018;12.078;2023-05-01T03:05:19;10.20;;;7.65;;
26082;SDS011;13848;49.018;12.078;2023-05-01T03:07:45;12.70;;;7.90;;
26082;SDS011;13848;49.018;12.078;2023-05-01T03:10:11;10.73;;;7.72;;
26082;SDS011;13848;49.018;12.078;2023-05-01T03:12:37;12.68;;;7.85;;
26082;SDS011;13848;49.018;12.078;2023-05-01T03:15:05;11.02;;;8.05;;
26082;SDS011;13848;49.018;12.078;2023-05-01T03:17:32;11.57;;;8.13;;
26082;SDS011;13848;49.018;12.078;2023-05-01T03:19:58;11.13;;;7.93;;
26082;SDS011;13848;49.018;12.078;2023-05-01T03:22:24;12.65;;;8.02;;
26082;SDS011;13848;49.018;12.078;2023-05-01T03:24:53;11.70;;;7.45;;
26082;SDS011;13848;49.018;12.078;2023-05-01T03:27:19;13.73;;;8.60;;
26082;SDS011;13848;49.018;12.078;2023-05-01T03:29:45;12.30;;;8.25;;
26082;SDS011;13848;49.018;12.078;2023-05-01T03:32:12;11.63;;;8.18;;
26082;SDS011;13848;49.018;12.078;2023-05-01T03:34:38;13.85;;;7.82;;
26082;SDS011;13848;49.018;12.078;2023-05-01T03:37:04;13.70;;;8.48;;
26082;SDS011;13848;49.018;12.078;2023-05-01T03:39:30;14.82;;;8.68;;
26082;SDS011;13848;49.018;12.078;2023-05-01T03:41:56;11.52;;;7.85;;
26082;SDS011;13848;49.018;12.078;2023-05-01T03:44:22;12.82;;;8.25;;
26082;SDS011;13848;49.018;12.078;2023-05-01T03:46:48;16.95;;;8.50;;
26082;SDS011;13848;49.018;12.078;2023-05-01T03:49:15;13.73;;;9.07;;
26082;SDS011;13848;49.018;12.078;2023-05-01T03:51:41;19.50;;;9.02;;
26082;SDS011;13848;49.018;12.078;2023-05-01T03:54:07;15.48;;;8.93;;
26082;SDS011;13848;49.018;12.078;2023-05-01T03:56:33;14.55;;;9.38;;
26082;SDS011;13848;49.018;12.078;2023-05-01T03:58:59;16.42;;;9.60;;
26082;SDS011;13848;49.018;12.078;2023-05-01T04:01:25;15.38;;;9.20;;
26082;SDS011;13848;49.018;12.078;2023-05-01T04:03:51;13.93;;;9.43;;
26082;SDS011;13848;49.018;12.078;2023-05-01T04:06:18;16.15;;;9.18;;
26082;SDS011;13848;49.018;12.078;2023-05-01T04:08:44;16.73;;;9.50;;
26082;SDS011;13848;49.018;12.078;2023-05-01T04:11:10;14.88;;;8.40;;
26082;SDS011;13848;49.018;12.078;2023-05-01T04:13:36;14.25;;;9.10;;
26082;SDS011;13848;49.018;12.078;2023-05-01T04:16:02;14.10;;;8.88;;
26082;SDS011;13848;49.018;12.078;2023-05-01T04:18:28;15.80;;;9.02;;
26082;SDS011;13848;49.018;12.078;2023-05-01T04:20:54;14.45;;;9.07;;
26082;SDS011;13848;49.018;12.078;2023-05-01T04:23:21;17.75;;;9.77;;
26082;SDS011;13848;49.018;12.078;2023-05-01T04:25:47;17.27;;;9.18;;
26082;SDS011;13848;49.018;12.078;2023-05-01T04:28:13;16.38;;;9.27;;
26082;SDS011;13848;49.018;12.078;2023-05-01T04:30:39;20.92;;;10.43;;
26082;SDS011;13848;49.018;12.078;2023-05-01T04:33:05;14.40;;;8.88;;
26082;SDS011;13848;49.018;12.078;2023-05-01T04:35:31;13.15;;;9.38;;
26082;SDS011;13848;49.018;12.078;2023-05-01T04:37:57;13.93;;;8.52;;
26082;SDS011;13848;49.018;12.078;2023-05-01T04:40:24;15.10;;;8.77;;
26082;SDS011;13848;49.018;12.078;2023-05-01T04:42:50;16.10;;;9.90;;
26082;SDS011;13848;49.018;12.078;2023-05-01T04:45:16;13.07;;;9.52;;
26082;SDS011;13848;49.018;12.078;2023-05-01T04:47:42;17.30;;;9.65;;
26082;SDS011;13848;49.018;12.078;2023-05-01T04:50:09;16.48;;;9.40;;
26082;SDS011;13848;49.018;12.078;2023-05-01T04:52:35;16.50;;;9.57;;
26082;SDS011;13848;49.018;12.078;2023-05-01T04:55:01;15.15;;;9.57;;
26082;SDS011;13848;49.018;12.078;2023-05-01T04:57:28;13.68;;;8.88;;
26082;SDS011;13848;49.018;12.078;2023-05-01T04:59:54;15.05;;;9.07;;
26082;SDS011;13848;49.018;12.078;2023-05-01T05:02:20;16.20;;;9.57;;
26082;SDS011;13848;49.018;12.078;2023-05-01T05:04:46;15.73;;;9.30;;
26082;SDS011;13848;49.018;12.078;2023-05-01T05:07:12;14.75;;;9.38;;
26082;SDS011;13848;49.018;12.078;2023-05-01T05:09:38;15.95;;;9.65;;
26082;SDS011;13848;49.018;12.078;2023-05-01T05:12:04;18.42;;;9.77;;
26082;SDS011;13848;49.018;12.078;2023-05-01T05:14:31;14.15;;;9.48;;
26082;SDS011;13848;49.018;12.078;2023-05-01T05:16:57;15.30;;;9.30;;
26082;SDS011;13848;49.018;12.078;2023-05-01T05:19:23;14.88;;;9.45;;
26082;SDS011;13848;49.018;12.078;2023-05-01T05:21:49;19.00;;;9.27;;
26082;SDS011;13848;49.018;12.078;2023-05-01T05:24:15;15.07;;;9.50;;
26082;SDS011;13848;49.018;12.078;2023-05-01T05:26:41;13.27;;;9.60;;
26082;SDS011;13848;49.018;12.078;2023-05-01T05:29:07;15.80;;;9.43;;
26082;SDS011;13848;49.018;12.078;2023-05-01T05:31:34;15.15;;;9.13;;
26082;SDS011;13848;49.018;12.078;2023-05-01T05:34:00;13.77;;;9.20;;
26082;SDS011;13848;49.018;12.078;2023-05-01T05:36:26;13.52;;;9.82;;
26082;SDS011;13848;49.018;12.078;2023-05-01T05:38:52;15.13;;;9.48;;
26082;SDS011;13848;49.018;12.078;2023-05-01T05:41:18;15.38;;;10.50;;
26082;SDS011;13848;49.018;12.078;2023-05-01T05:43:43;17.50;;;9.10;;
26082;SDS011;13848;49.018;12.078;2023-05-01T05:46:09;15.27;;;10.07;;
26082;SDS011;13848;49.018;12.078;2023-05-01T05:48:37;16.92;;;10.15;;
26082;SDS011;13848;49.018;12.078;2023-05-01T05:51:03;16.55;;;9.55;;
26082;SDS011;13848;49.018;12.078;2023-05-01T05:53:29;13.38;;;9.57;;
26082;SDS011;13848;49.018;12.078;2023-05-01T05:55:55;14.02;;;9.35;;
26082;SDS011;13848;49.018;12.078;2023-05-01T05:58:21;14.02;;;9.50;;
26082;SDS011;13848;49.018;12.078;2023-05-01T06:00:47;15.95;;;9.75;;
26082;SDS011;13848;49.018;12.078;2023-05-01T06:03:13;16.50;;;10.15;;
26082;SDS011;13848;49.018;12.078;2023-05-01T06:05:41;12.90;;;9.40;;
26082;SDS011;13848;49.018;12.078;2023-05-01T06:08:07;14.00;;;9.82;;
26082;SDS011;13848;49.018;12.078;2023-05-01T06:10:33;15.43;;;9.68;;
26082;SDS011;13848;49.018;12.078;2023-05-01T06:12:59;16.25;;;9.50;;
26082;SDS011;13848;49.018;12.078;2023-05-01T06:15:25;16.02;;;9.70;;
26082;SDS011;13848;49.018;12.078;2023-05-01T06:17:51;14.95;;;9.88;;
26082;SDS011;13848;49.018;12.078;2023-05-01T06:20:17;16.00;;;9.68;;
26082;SDS011;13848;49.018;12.078;2023-05-01T06:22:44;14.98;;;9.85;;
26082;SDS011;13848;49.018;12.078;2023-05-01T06:25:10;15.93;;;9.25;;
26082;SDS011;13848;49.018;12.078;2023-05-01T06:27:36;16.45;;;9.95;;
26082;SDS011;13848;49.018;12.078;2023-05-01T06:30:02;13.90;;;9.25;;
26082;SDS011;13848;49.018;12.078;2023-05-01T06:32:29;15.45;;;9.90;;
26082;SDS011;13848;49.018;12.078;2023-05-01T06:34:54;14.07;;;9.00;;
26082;SDS011;13848;49.018;12.078;2023-05-01T06:37:20;14.52;;;9.57;;
26082;SDS011;13848;49.018;12.078;2023-05-01T06:39:48;15.23;;;9.20;;
26082;SDS011;13848;49.018;12.078;2023-05-01T06:42:13;13.13;;;9.20;;
26082;SDS011;13848;49.018;12.078;2023-05-01T06:44:39;24.73;;;14.52;;
26082;SDS011;13848;49.018;12.078;2023-05-01T06:47:05;17.75;;;11.15;;
26082;SDS011;13848;49.018;12.078;2023-05-01T06:49:31;13.35;;;9.60;;
26082;SDS011;13848;49.018;12.078;2023-05-01T06:51:57;13.40;;;9.30;;
26082;SDS011;13848;49.018;12.078;2023-05-01T06:54:23;14.27;;;9.30;;
26082;SDS011;13848;49.018;12.078;2023-05-01T06:56:51;15.20;;;9.32;;
26082;SDS011;13848;49.018;12.078;2023-05-01T06:59:17;13.88;;;9.60;;
26082;SDS011;13848;49.018;12.078;2023-05-01T07:01:43;14.95;;;9.50;;
26082;SDS011;13848;49.018;12.078;2023-05-01T07:04:09;15.35;;;9.95;;
26082;SDS011;13848;49.018;12.078;2023-05-01T07:06:35;17.58;;;9.52;;
26082;SDS011;13848;49.018;12.078;2023-05-01T07:09:02;14.43;;;9.02;;
26082;SDS011;13848;49.018;12.078;2023-05-01T07:11:28;13.73;;;9.13;;
26082;SDS011;13848;49.018;12.078;2023-05-01T07:13:56;15.52;;;9.43;;
26082;SDS011;13848;49.018;12.078;2023-05-01T07:16:22;16.00;;;9.45;;
26082;SDS011;13848;49.018;12.078;2023-05-01T07:18:48;15.60;;;8.30;;
26082;SDS011;13848;49.018;12.078;2023-05-01T07:21:14;12.38;;;8.02;;
26082;SDS011;13848;49.018;12.078;2023-05-01T07:23:40;10.98;;;7.82;;
26082;SDS011;13848;49.018;12.078;2023-05-01T07:26:05;14.75;;;8.65;;
26082;SDS011;13848;49.018;12.078;2023-05-01T07:28:31;13.35;;;8.68;;
26082;SDS011;13848;49.018;12.078;2023-05-01T07:30:59;11.90;;;7.70;;
26082;SDS011;13848;49.018;12.078;2023-05-01T07:33:24;8.90;;;6.72;;
26082;SDS011;13848;49.018;12.078;2023-05-01T07:35:50;12.20;;;6.20;;
26082;SDS011;13848;49.018;12.078;2023-05-01T07:38:16;10.05;;;5.03;;
26082;SDS011;13848;49.018;12.078;2023-05-01T07:40:43;5.97;;;3.95;;
26082;SDS011;13848;49.018;12.078;2023-05-01T07:43:09;9.15;;;4.40;;
26082;SDS011;13848;49.018;12.078;2023-05-01T07:45:35;6.80;;;4.07;;
26082;SDS011;13848;49.018;12.078;2023-05-01T07:48:02;7.55;;;4.05;;
26082;SDS011;13848;49.018;12.078;2023-05-01T07:50:28;7.22;;;3.92;;
26082;SDS011;13848;49.018;12.078;2023-05-01T07:52:54;4.43;;;3.80;;
26082;SDS011;13848;49.018;12.078;2023-05-01T07:55:20;8.73;;;3.72;;
26082;SDS011;13848;49.018;12.078;2023-05-01T07:57:46;6.38;;;4.15;;
26082;SDS011;13848;49.018;12.078;2023-05-01T08:00:13;6.05;;;3.90;;
26082;SDS011;13848;49.018;12.078;2023-05-01T08:02:39;5.35;;;3.35;;
26082;SDS011;13848;49.018;12.078;2023-05-01T08:05:07;8.10;;;3.63;;
26082;SDS011;13848;49.018;12.078;2023-05-01T08:07:33;4.80;;;3.47;;
26082;SDS011;13848;49.018;12.078;2023-05-01T08:09:59;4.28;;;3.33;;
26082;SDS011;13848;49.018;12.078;2023-05-01T08:12:25;4.82;;;3.45;;
26082;SDS011;13848;49.018;12.078;2023-05-01T08:14:53;6.05;;;3.45;;
26082;SDS011;13848;49.018;12.078;2023-05-01T08:17:19;4.30;;;3.60;;
26082;SDS011;13848;49.018;12.078;2023-05-01T08:19:45;5.13;;;3.22;;
26082;SDS011;13848;49.018;12.078;2023-05-01T08:22:13;4.63;;;3.15;;
26082;SDS011;13848;49.018;12.078;2023-05-01T08:24:39;5.78;;;3.70;;
26082;SDS011;13848;49.018;12.078;2023-05-01T08:27:05;5.57;;;3.33;;
26082;SDS011;13848;49.018;12.078;2023-05-01T08:29:31;3.83;;;3.28;;
26082;SDS011;13848;49.018;12.078;2023-05-01T08:31:57;4.90;;;3.45;;
26082;SDS011;13848;49.018;12.078;2023-05-01T08:34:23;5.60;;;3.70;;
26082;SDS011;13848;49.018;12.078;2023-05-01T08:36:49;4.80;;;3.60;;
26082;SDS011;13848;49.018;12.078;2023-05-01T08:39:16;5.57;;;3.08;;
26082;SDS011;13848;49.018;12.078;2023-05-01T08:41:44;4.25;;;3.28;;
26082;SDS011;13848;49.018;12.078;2023-05-01T08:44:11;3.58;;;3.20;;
26082;SDS011;13848;49.018;12.078;2023-05-01T08:46:42;5.68;;;3.53;;
26082;SDS011;13848;49.018;12.078;2023-05-01T08:49:11;4.75;;;3.70;;
26082;SDS011;13848;49.018;12.078;2023-05-01T08:51:39;4.13;;;3.33;;
26082;SDS011;13848;49.018;12.078;2023-05-01T08:54:06;7.88;;;3.33;;
26082;SDS011;13848;49.018;12.078;2023-05-01T08:56:35;5.35;;;3.30;;
26082;SDS011;13848;49.018;12.078;2023-05-01T08:59:03;5.30;;;3.65;;
26082;SDS011;13848;49.018;12.078;2023-05-01T09:01:30;4.50;;;3.42;;
26082;SDS011;13848;49.018;12.078;2023-05-01T09:03:57;5.15;;;3.08;;
26082;SDS011;13848;49.018;12.078;2023-05-01T09:06:27;7.43;;;3.20;;
26082;SDS011;13848;49.018;12.078;2023-05-01T09:08:53;4.28;;;2.97;;
26082;SDS011;13848;49.018;12.078;2023-05-01T09:11:19;9.30;;;3.10;;
26082;SDS011;13848;49.018;12.078;2023-05-01T09:13:48;6.22;;;3.00;;
26082;SDS011;13848;49.018;12.078;2023-05-01T09:16:15;5.13;;;3.50;;
26082;SDS011;13848;49.018;12.078;2023-05-01T09:18:41;3.10;;;2.45;;
26082;SDS011;13848;49.018;12.078;2023-05-01T09:21:06;5.85;;;3.08;;
26082;SDS011;13848;49.018;12.078;2023-05-01T09:23:32;5.82;;;2.88;;
26082;SDS011;13848;49.018;12.078;2023-05-01T09:25:59;5.53;;;3.20;;
26082;SDS011;13848;49.018;12.078;2023-05-01T09:31:20;4.78;;;3.10;;
26082;SDS011;13848;49.018;12.078;2023-05-01T09:33:49;5.40;;;3.40;;
26082;SDS011;13848;49.018;12.078;2023-05-01T09:36:16;5.78;;;3.38;;
26082;SDS011;13848;49.018;12.078;2023-05-01T09:38:42;5.63;;;3.30;;
26082;SDS011;13848;49.018;12.078;2023-05-01T09:41:09;8.00;;;3.40;;
26082;SDS011;13848;49.018;12.078;2023-05-01T09:43:34;5.68;;;3.47;;
26082;SDS011;13848;49.018;12.078;2023-05-01T09:46:03;5.32;;;3.28;;
26082;SDS011;13848;49.018;12.078;2023-05-01T09:48:30;10.50;;;3.47;;
26082;SDS011;13848;49.018;12.078;2023-05-01T09:50:56;5.85;;;3.35;;
26082;SDS011;13848;49.018;12.078;2023-05-01T09:53:32;5.95;;;3.33;;
26082;SDS011;13848;49.018;12.078;2023-05-01T09:56:02;4.20;;;3.22;;
26082;SDS011;13848;49.018;12.078;2023-05-01T09:58:28;6.55;;;3.63;;
26082;SDS011;13848;49.018;12.078;2023-05-01T10:00:54;3.90;;;3.03;;
26082;SDS011;13848;49.018;12.078;2023-05-01T10:03:21;4.05;;;3.08;;
26082;SDS011;13848;49.018;12.078;2023-05-01T10:05:47;5.72;;;3.05;;
26082;SDS011;13848;49.018;12.078;2023-05-01T10:08:13;7.13;;;3.13;;
26082;SDS011;13848;49.018;12.078;2023-05-01T10:10:40;5.32;;;3.25;;
26082;SDS011;13848;49.018;12.078;2023-05-01T10:13:12;4.80;;;3.17;;
26082;SDS011;13848;49.018;12.078;2023-05-01T10:15:39;3.72;;;3.03;;
26082;SDS011;13848;49.018;12.078;2023-05-01T10:18:05;3.58;;;2.80;;
26082;SDS011;13848;49.018;12.078;2023-05-01T10:20:33;4.20;;;3.10;;
26082;SDS011;13848;49.018;12.078;2023-05-01T10:22:59;5.18;;;3.13;;
26082;SDS011;13848;49.018;12.078;2023-05-01T10:25:26;9.23;;;2.70;;
26082;SDS011;13848;49.018;12.078;2023-05-01T10:27:53;6.45;;;2.75;;
26082;SDS011;13848;49.018;12.078;2023-05-01T10:30:19;4.50;;;2.65;;
26082;SDS011;13848;49.018;12.078;2023-05-01T10:32:46;6.30;;;2.65;;
26082;SDS011;13848;49.018;12.078;2023-05-01T10:35:14;6.88;;;3.00;;
26082;SDS011;13848;49.018;12.078;2023-05-01T10:37:46;4.70;;;2.92;;
26082;SDS011;13848;49.018;12.078;2023-05-01T10:43:15;5.20;;;2.83;;
26082;SDS011;13848;49.018;12.078;2023-05-01T10:45:43;3.90;;;2.40;;
26082;SDS011;13848;49.018;12.078;2023-05-01T10:48:09;4.45;;;2.40;;
26082;SDS011;13848;49.018;12.078;2023-05-01T10:50:41;4.15;;;2.53;;
26082;SDS011;13848;49.018;12.078;2023-05-01T10:53:35;3.22;;;2.42;;
26082;SDS011;13848;49.018;12.078;2023-05-01T10:56:01;4.50;;;2.70;;
26082;SDS011;13848;49.018;12.078;2023-05-01T11:01:29;4.65;;;2.25;;
26082;SDS011;13848;49.018;12.078;2023-05-01T11:03:56;3.55;;;2.55;;
26082;SDS011;13848;49.018;12.078;2023-05-01T11:06:23;4.15;;;2.60;;
26082;SDS011;13848;49.018;12.078;2023-05-01T11:08:50;3.88;;;2.75;;
26082;SDS011;13848;49.018;12.078;2023-05-01T11:14:11;3.47;;;2.33;;
26082;SDS011;13848;49.018;12.078;2023-05-01T11:16:40;4.45;;;2.53;;
26082;SDS011;13848;49.018;12.078;2023-05-01T11:19:08;3.70;;;2.53;;
26082;SDS011;13848;49.018;12.078;2023-05-01T11:21:36;6.18;;;2.83;;
26082;SDS011;13848;49.018;12.078;2023-05-01T11:24:04;3.53;;;2.35;;
26082;SDS011;13848;49.018;12.078;2023-05-01T11:26:31;4.30;;;2.50;;
26082;SDS011;13848;49.018;12.078;2023-05-01T11:28:58;3.85;;;2.60;;
26082;SDS011;13848;49.018;12.078;2023-05-01T11:31:25;3.47;;;2.33;;
26082;SDS011;13848;49.018;12.078;2023-05-01T11:33:52;2.67;;;2.47;;
26082;SDS011;13848;49.018;12.078;2023-05-01T11:36:20;3.90;;;2.35;;
26082;SDS011;13848;49.018;12.078;2023-05-01T11:38:50;3.30;;;2.75;;
26082;SDS011;13848;49.018;12.078;2023-05-01T11:41:19;4.47;;;2.67;;
26082;SDS011;13848;49.018;12.078;2023-05-01T11:43:49;4.57;;;2.80;;
26082;SDS011;13848;49.018;12.078;2023-05-01T11:46:21;10.55;;;3.00;;
26082;SDS011;13848;49.018;12.078;2023-05-01T11:48:48;13.00;;;3.35;;
26082;SDS011;13848;49.018;12.078;2023-05-01T11:51:14;4.85;;;2.63;;
26082;SDS011;13848;49.018;12.078;2023-05-01T11:53:41;3.90;;;2.63;;
26082;SDS011;13848;49.018;12.078;2023-05-01T11:56:17;7.45;;;3.00;;
26082;SDS011;13848;49.018;12.078;2023-05-01T11:58:45;8.65;;;3.45;;
26082;SDS011;13848;49.018;12.078;2023-05-01T12:01:11;7.35;;;4.40;;
26082;SDS011;13848;49.018;12.078;2023-05-01T12:03:40;5.97;;;2.50;;
26082;SDS011;13848;49.018;12.078;2023-05-01T12:06:07;3.30;;;2.55;;
26082;SDS011;13848;49.018;12.078;2023-05-01T12:08:34;6.18;;;2.70;;
26082;SDS011;13848;49.018;12.078;2023-05-01T12:11:00;3.63;;;2.53;;
26082;SDS011;13848;49.018;12.078;2023-05-01T12:13:27;4.10;;;2.53;;
26082;SDS011;13848;49.018;12.078;2023-05-01T12:15:55;3.75;;;2.40;;
26082;SDS011;13848;49.018;12.078;2023-05-01T12:18:21;4.32;;;2.60;;
26082;SDS011;13848;49.018;12.078;2023-05-01T12:20:47;4.30;;;2.60;;
26082;SDS011;13848;49.018;12.078;2023-05-01T12:23:15;4.82;;;2.90;;
26082;SDS011;13848;49.018;12.078;2023-05-01T12:25:42;3.47;;;3.08;;
26082;SDS011;13848;49.018;12.078;2023-05-01T12:28:09;2.85;;;2.35;;
26082;SDS011;13848;49.018;12.078;2023-05-01T12:30:37;3.55;;;2.40;;
26082;SDS011;13848;49.018;12.078;2023-05-01T12:33:12;3.78;;;2.55;;
26082;SDS011;13848;49.018;12.078;2023-05-01T12:35:38;7.90;;;4.05;;
26082;SDS011;13848;49.018;12.078;2023-05-01T12:38:09;6.72;;;2.80;;
26082;SDS011;13848;49.018;12.078;2023-05-01T12:40:36;3.40;;;2.63;;
26082;SDS011;13848;49.018;12.078;2023-05-01T12:43:03;2.95;;;2.28;;
26082;SDS011;13848;49.018;12.078;2023-05-01T12:45:29;3.72;;;2.60;;
26082;SDS011;13848;49.018;12.078;2023-05-01T12:48:07;6.82;;;3.67;;
26082;SDS011;13848;49.018;12.078;2023-05-01T12:53:02;3.65;;;2.50;;
26082;SDS011;13848;49.018;12.078;2023-05-01T12:55:28;4.30;;;2.72;;
26082;SDS011;13848;49.018;12.078;2023-05-01T12:57:54;4.75;;;2.78;;
26082;SDS011;13848;49.018;12.078;2023-05-01T13:00:20;6.25;;;2.80;;
26082;SDS011;13848;49.018;12.078;2023-05-01T13:02:47;3.45;;;2.40;;
26082;SDS011;13848;49.018;12.078;2023-05-01T13:05:13;4.53;;;2.58;;
26082;SDS011;13848;49.018;12.078;2023-05-01T13:07:40;4.40;;;2.45;;
26082;SDS011;13848;49.018;12.078;2023-05-01T13:10:13;3.75;;;2.53;;
26082;SDS011;13848;49.018;12.078;2023-05-01T13:12:42;3.03;;;2.55;;
26082;SDS011;13848;49.018;12.078;2023-05-01T13:15:17;3.72;;;2.75;;
26082;SDS011;13848;49.018;12.078;2023-05-01T13:17:43;3.08;;;2.67;;
26082;SDS011;13848;49.018;12.078;2023-05-01T13:20:10;5.05;;;2.75;;
26082;SDS011;13848;49.018;12.078;2023-05-01T13:22:37;5.53;;;2.30;;
26082;SDS011;13848;49.018;12.078;2023-05-01T13:25:13;2.90;;;2.55;;
26082;SDS011;13848;49.018;12.078;2023-05-01T13:27:41;4.10;;;2.60;;
26082;SDS011;13848;49.018;12.078;2023-05-01T13:30:12;6.85;;;2.95;;
26082;SDS011;13848;49.018;12.078;2023-05-01T13:32:38;4.07;;;2.42;;
26082;SDS011;13848;49.018;12.078;2023-05-01T13:35:06;3.00;;;2.50;;
26082;SDS011;13848;49.018;12.078;2023-05-01T13:37:33;3.35;;;2.33;;
26082;SDS011;13848;49.018;12.078;2023-05-01T13:39:59;3.45;;;2.50;;
26082;SDS011;13848;49.018;12.078;2023-05-01T13:42:27;3.25;;;2.33;;
26082;SDS011;13848;49.018;12.078;2023-05-01T13:44:54;3.53;;;2.58;;
26082;SDS011;13848;49.018;12.078;2023-05-01T13:47:21;3.97;;;2.38;;
26082;SDS011;13848;49.018;12.078;2023-05-01T13:49:48;3.35;;;2.75;;
26082;SDS011;13848;49.018;12.078;2023-05-01T13:52:15;2.92;;;2.55;;
26082;SDS011;13848;49.018;12.078;2023-05-01T13:54:42;6.43;;;3.08;;
26082;SDS011;13848;49.018;12.078;2023-05-01T13:57:08;3.85;;;2.80;;
26082;SDS011;13848;49.018;12.078;2023-05-01T13:59:37;4.57;;;3.20;;
26082;SDS011;13848;49.018;12.078;2023-05-01T14:02:06;5.65;;;3.15;;
26082;SDS011;13848;49.018;12.078;2023-05-01T14:04:43;4.93;;;3.72;;
26082;SDS011;13848;49.018;12.078;2023-05-01T14:07:09;6.03;;;4.85;;
26082;SDS011;13848;49.018;12.078;2023-05-01T14:09:35;8.10;;;4.95;;
26082;SDS011;13848;49.018;12.078;2023-05-01T14:12:04;8.10;;;5.35;;
26082;SDS011;13848;49.018;12.078;2023-05-01T14:14:30;6.10;;;4.78;;
26082;SDS011;13848;49.018;12.078;2023-05-01T14:16:58;6.35;;;4.68;;
26082;SDS011;13848;49.018;12.078;2023-05-01T14:19:24;5.10;;;4.43;;
26082;SDS011;13848;49.018;12.078;2023-05-01T14:21:50;5.03;;;4.15;;
26082;SDS011;13848;49.018;12.078;2023-05-01T14:24:16;9.25;;;4.18;;
26082;SDS011;13848;49.018;12.078;2023-05-01T14:26:42;6.20;;;3.97;;
26082;SDS011;13848;49.018;12.078;2023-05-01T14:29:12;6.20;;;4.20;;
26082;SDS011;13848;49.018;12.078;2023-05-01T14:31:44;5.25;;;4.40;;
26082;SDS011;13848;49.018;12.078;2023-05-01T14:34:12;7.22;;;4.95;;
26082;SDS011;13848;49.018;12.078;2023-05-01T14:36:41;5.75;;;4.80;;
26082;SDS011;13848;49.018;12.078;2023-05-01T14:39:07;6.72;;;5.03;;
26082;SDS011;13848;49.018;12.078;2023-05-01T14:41:33;7.72;;;4.70;;
26082;SDS011;13848;49.018;12.078;2023-05-01T14:44:00;4.72;;;4.22;;